sensor_id;sensor_type;location;lat;lon;timestamp;P1;durP1;ratioP1;P2;durP2;ratioP2
23506;SDS011;11930;53.076;18.250;2023-11-21T00:01:20;16.50;;;9.37;;
23506;SDS011;11930;53.076;18.250;2023-11-21T00:03:46;15.30;;;8.83;;
23506;SDS011;11930;53.076;18.250;2023-11-21T00:06:12;16.10;;;8.57;;
23506;SDS011;11930;53.076;18.250;2023-11-21T00:08:40;14.63;;;8.50;;
23506;SDS011;11930;53.076;18.250;2023-11-21T00:11:06;15.83;;;7.83;;
23506;SDS011;11930;53.076;18.250;2023-11-21T00:13:32;13.40;;;7.90;;
23506;SDS011;11930;53.076;18.250;2023-11-21T00:15:58;13.80;;;8.07;;
23506;SDS011;11930;53.076;18.250;2023-11-21T00:18:24;16.10;;;9.03;;
23506;SDS011;11930;53.076;18.250;2023-11-21T00:20:50;14.13;;;8.30;;
23506;SDS011;11930;53.076;18.250;2023-11-21T00:23:16;18.30;;;9.33;;
23506;SDS011;11930;53.076;18.250;2023-11-21T00:25:43;14.70;;;8.40;;
23506;SDS011;11930;53.076;18.250;2023-11-21T00:28:09;15.63;;;8.50;;
23506;SDS011;11930;53.076;18.250;2023-11-21T00:30:35;15.20;;;8.70;;
23506;SDS011;11930;53.076;18.250;2023-11-21T00:33:01;16.83;;;9.43;;
23506;SDS011;11930;53.076;18.250;2023-11-21T00:35:27;16.40;;;8.83;;
23506;SDS011;11930;53.076;18.250;2023-11-21T00:37:53;13.83;;;8.17;;
23506;SDS011;11930;53.076;18.250;2023-11-21T00:40:19;14.47;;;8.33;;
23506;SDS011;11930;53.076;18.250;2023-11-21T00:42:47;14.43;;;8.13;;
23506;SDS011;11930;53.076;18.250;2023-11-21T00:45:13;17.13;;;8.83;;
23506;SDS011;11930;53.076;18.250;2023-11-21T00:47:39;15.03;;;8.77;;
23506;SDS011;11930;53.076;18.250;2023-11-21T00:50:06;16.00;;;8.43;;
23506;SDS011;11930;53.076;18.250;2023-11-21T00:52:33;15.77;;;9.07;;
23506;SDS011;11930;53.076;18.250;2023-11-21T00:54:58;18.00;;;8.50;;
23506;SDS011;11930;53.076;18.250;2023-11-21T00:57:26;14.73;;;8.43;;
23506;SDS011;11930;53.076;18.250;2023-11-21T00:59:52;15.20;;;8.80;;
23506;SDS011;11930;53.076;18.250;2023-11-21T01:02:18;15.63;;;8.70;;
23506;SDS011;11930;53.076;18.250;2023-11-21T01:04:44;13.63;;;8.43;;
23506;SDS011;11930;53.076;18.250;2023-11-21T01:07:10;15.37;;;8.63;;
23506;SDS011;11930;53.076;18.250;2023-11-21T01:09:36;14.20;;;8.40;;
23506;SDS011;11930;53.076;18.250;2023-11-21T01:12:02;14.53;;;9.13;;
23506;SDS011;11930;53.076;18.250;2023-11-21T01:14:28;13.77;;;8.67;;
23506;SDS011;11930;53.076;18.250;2023-11-21T01:16:54;14.30;;;8.03;;
23506;SDS011;11930;53.076;18.250;2023-11-21T01:19:20;14.50;;;8.37;;
23506;SDS011;11930;53.076;18.250;2023-11-21T01:21:46;13.07;;;7.97;;
23506;SDS011;11930;53.076;18.250;2023-11-21T01:24:12;14.37;;;7.73;;
23506;SDS011;11930;53.076;18.250;2023-11-21T01:26:38;11.83;;;7.50;;
23506;SDS011;11930;53.076;18.250;2023-11-21T01:29:04;12.27;;;7.83;;
23506;SDS011;11930;53.076;18.250;2023-11-21T01:31:30;14.00;;;7.53;;
23506;SDS011;11930;53.076;18.250;2023-11-21T01:33:56;15.37;;;7.87;;
23506;SDS011;11930;53.076;18.250;2023-11-21T01:36:23;13.43;;;7.17;;
23506;SDS011;11930;53.076;18.250;2023-11-21T01:38:54;16.33;;;7.27;;
23506;SDS011;11930;53.076;18.250;2023-11-21T01:41:27;12.13;;;7.37;;
23506;SDS011;11930;53.076;18.250;2023-11-21T01:43:54;10.83;;;7.17;;
23506;SDS011;11930;53.076;18.250;2023-11-21T01:46:20;13.67;;;8.13;;
23506;SDS011;11930;53.076;18.250;2023-11-21T01:48:48;13.03;;;7.30;;
23506;SDS011;11930;53.076;18.250;2023-11-21T01:51:15;10.80;;;6.77;;
23506;SDS011;11930;53.076;18.250;2023-11-21T01:53:41;16.43;;;8.77;;
23506;SDS011;11930;53.076;18.250;2023-11-21T01:56:09;13.57;;;8.00;;
23506;SDS011;11930;53.076;18.250;2023-11-21T01:58:35;16.57;;;9.40;;
23506;SDS011;11930;53.076;18.250;2023-11-21T02:01:02;15.30;;;8.27;;
23506;SDS011;11930;53.076;18.250;2023-11-21T02:03:28;15.87;;;8.27;;
23506;SDS011;11930;53.076;18.250;2023-11-21T02:05:54;13.47;;;7.93;;
23506;SDS011;11930;53.076;18.250;2023-11-21T02:08:20;12.20;;;7.10;;
23506;SDS011;11930;53.076;18.250;2023-11-21T02:10:46;12.27;;;6.90;;
23506;SDS011;11930;53.076;18.250;2023-11-21T02:13:13;11.67;;;6.17;;
23506;SDS011;11930;53.076;18.250;2023-11-21T02:15:39;14.40;;;6.90;;
23506;SDS011;11930;53.076;18.250;2023-11-21T02:18:05;11.87;;;7.17;;
23506;SDS011;11930;53.076;18.250;2023-11-21T02:20:31;12.73;;;7.33;;
23506;SDS011;11930;53.076;18.250;2023-11-21T02:23:00;12.53;;;7.50;;
23506;SDS011;11930;53.076;18.250;2023-11-21T02:25:31;14.27;;;7.60;;
23506;SDS011;11930;53.076;18.250;2023-11-21T02:27:59;14.20;;;8.23;;
23506;SDS011;11930;53.076;18.250;2023-11-21T02:30:26;15.07;;;8.10;;
23506;SDS011;11930;53.076;18.250;2023-11-21T02:32:53;15.37;;;8.00;;
23506;SDS011;11930;53.076;18.250;2023-11-21T02:35:20;15.70;;;8.60;;
23506;SDS011;11930;53.076;18.250;2023-11-21T02:37:47;16.67;;;9.20;;
23506;SDS011;11930;53.076;18.250;2023-11-21T02:40:13;16.77;;;9.80;;
23506;SDS011;11930;53.076;18.250;2023-11-21T02:42:43;19.13;;;10.93;;
23506;SDS011;11930;53.076;18.250;2023-11-21T02:45:10;19.37;;;10.50;;
23506;SDS011;11930;53.076;18.250;2023-11-21T02:47:38;15.63;;;9.13;;
23506;SDS011;11930;53.076;18.250;2023-11-21T02:50:05;16.93;;;9.63;;
23506;SDS011;11930;53.076;18.250;2023-11-21T02:52:33;18.47;;;10.10;;
23506;SDS011;11930;53.076;18.250;2023-11-21T02:55:03;18.93;;;9.27;;
23506;SDS011;11930;53.076;18.250;2023-11-21T02:57:30;18.67;;;9.93;;
23506;SDS011;11930;53.076;18.250;2023-11-21T02:59:56;18.20;;;9.90;;
23506;SDS011;11930;53.076;18.250;2023-11-21T03:02:22;19.50;;;10.00;;
23506;SDS011;11930;53.076;18.250;2023-11-21T03:04:48;20.83;;;10.77;;
23506;SDS011;11930;53.076;18.250;2023-11-21T03:07:15;18.73;;;9.80;;
23506;SDS011;11930;53.076;18.250;2023-11-21T03:09:41;19.00;;;9.87;;
23506;SDS011;11930;53.076;18.250;2023-11-21T03:12:07;14.37;;;8.57;;
23506;SDS011;11930;53.076;18.250;2023-11-21T03:14:35;16.50;;;9.60;;
23506;SDS011;11930;53.076;18.250;2023-11-21T03:17:01;15.43;;;9.00;;
23506;SDS011;11930;53.076;18.250;2023-11-21T03:19:27;16.83;;;10.17;;
23506;SDS011;11930;53.076;18.250;2023-11-21T03:21:53;16.47;;;9.13;;
23506;SDS011;11930;53.076;18.250;2023-11-21T03:24:19;16.77;;;9.60;;
23506;SDS011;11930;53.076;18.250;2023-11-21T03:26:46;16.13;;;9.57;;
23506;SDS011;11930;53.076;18.250;2023-11-21T03:29:12;15.50;;;8.97;;
23506;SDS011;11930;53.076;18.250;2023-11-21T03:31:39;16.93;;;9.60;;
23506;SDS011;11930;53.076;18.250;2023-11-21T03:34:05;17.90;;;9.73;;
23506;SDS011;11930;53.076;18.250;2023-11-21T03:36:32;20.03;;;11.20;;
23506;SDS011;11930;53.076;18.250;2023-11-21T03:38:58;18.47;;;10.27;;
23506;SDS011;11930;53.076;18.250;2023-11-21T03:41:24;20.67;;;10.40;;
23506;SDS011;11930;53.076;18.250;2023-11-21T03:43:50;18.50;;;9.40;;
23506;SDS011;11930;53.076;18.250;2023-11-21T03:46:16;21.33;;;9.70;;
23506;SDS011;11930;53.076;18.250;2023-11-21T03:48:43;17.23;;;9.87;;
23506;SDS011;11930;53.076;18.250;2023-11-21T03:51:08;18.50;;;10.33;;
23506;SDS011;11930;53.076;18.250;2023-11-21T03:53:35;18.80;;;10.13;;
23506;SDS011;11930;53.076;18.250;2023-11-21T03:56:02;20.90;;;10.40;;
23506;SDS011;11930;53.076;18.250;2023-11-21T03:58:29;29.73;;;12.70;;
23506;SDS011;11930;53.076;18.250;2023-11-21T04:00:55;23.20;;;12.03;;
23506;SDS011;11930;53.076;18.250;2023-11-21T04:03:21;23.97;;;12.13;;
23506;SDS011;11930;53.076;18.250;2023-11-21T04:05:47;30.37;;;14.83;;
23506;SDS011;11930;53.076;18.250;2023-11-21T04:08:13;27.57;;;13.37;;
23506;SDS011;11930;53.076;18.250;2023-11-21T04:10:39;28.13;;;13.37;;
23506;SDS011;11930;53.076;18.250;2023-11-21T04:13:05;25.90;;;12.73;;
23506;SDS011;11930;53.076;18.250;2023-11-21T04:15:32;23.70;;;12.00;;
23506;SDS011;11930;53.076;18.250;2023-11-21T04:17:58;24.73;;;12.20;;
23506;SDS011;11930;53.076;18.250;2023-11-21T04:20:24;22.53;;;11.63;;
23506;SDS011;11930;53.076;18.250;2023-11-21T04:22:50;22.83;;;11.03;;
23506;SDS011;11930;53.076;18.250;2023-11-21T04:25:16;19.47;;;10.87;;
23506;SDS011;11930;53.076;18.250;2023-11-21T04:27:43;20.67;;;10.37;;
23506;SDS011;11930;53.076;18.250;2023-11-21T04:30:10;23.00;;;11.17;;
23506;SDS011;11930;53.076;18.250;2023-11-21T04:32:37;20.23;;;11.13;;
23506;SDS011;11930;53.076;18.250;2023-11-21T04:35:04;22.87;;;12.20;;
23506;SDS011;11930;53.076;18.250;2023-11-21T04:37:31;20.10;;;10.33;;
23506;SDS011;11930;53.076;18.250;2023-11-21T04:39:57;19.90;;;10.60;;
23506;SDS011;11930;53.076;18.250;2023-11-21T04:42:23;19.07;;;9.20;;
23506;SDS011;11930;53.076;18.250;2023-11-21T04:44:49;18.10;;;9.67;;
23506;SDS011;11930;53.076;18.250;2023-11-21T04:47:15;19.50;;;9.23;;
23506;SDS011;11930;53.076;18.250;2023-11-21T04:49:42;17.57;;;10.03;;
23506;SDS011;11930;53.076;18.250;2023-11-21T04:52:09;22.40;;;10.23;;
23506;SDS011;11930;53.076;18.250;2023-11-21T04:54:35;19.10;;;9.77;;
23506;SDS011;11930;53.076;18.250;2023-11-21T04:57:01;24.30;;;11.27;;
23506;SDS011;11930;53.076;18.250;2023-11-21T04:59:28;21.03;;;10.43;;
23506;SDS011;11930;53.076;18.250;2023-11-21T05:01:54;20.57;;;9.87;;
23506;SDS011;11930;53.076;18.250;2023-11-21T05:04:20;21.33;;;9.80;;
23506;SDS011;11930;53.076;18.250;2023-11-21T05:06:48;22.20;;;10.07;;
23506;SDS011;11930;53.076;18.250;2023-11-21T05:09:14;22.20;;;10.33;;
23506;SDS011;11930;53.076;18.250;2023-11-21T05:11:41;23.47;;;9.73;;
23506;SDS011;11930;53.076;18.250;2023-11-21T05:14:07;21.60;;;10.00;;
23506;SDS011;11930;53.076;18.250;2023-11-21T05:16:34;19.17;;;9.47;;
23506;SDS011;11930;53.076;18.250;2023-11-21T05:19:00;21.10;;;8.90;;
23506;SDS011;11930;53.076;18.250;2023-11-21T05:21:27;20.37;;;9.73;;
23506;SDS011;11930;53.076;18.250;2023-11-21T05:23:53;23.77;;;10.67;;
23506;SDS011;11930;53.076;18.250;2023-11-21T05:26:19;20.30;;;10.47;;
23506;SDS011;11930;53.076;18.250;2023-11-21T05:28:45;21.53;;;10.93;;
23506;SDS011;11930;53.076;18.250;2023-11-21T05:31:11;20.00;;;10.27;;
23506;SDS011;11930;53.076;18.250;2023-11-21T05:33:37;22.57;;;10.70;;
23506;SDS011;11930;53.076;18.250;2023-11-21T05:36:04;20.50;;;11.50;;
23506;SDS011;11930;53.076;18.250;2023-11-21T05:38:33;21.27;;;11.00;;
23506;SDS011;11930;53.076;18.250;2023-11-21T05:41:01;23.03;;;11.63;;
23506;SDS011;11930;53.076;18.250;2023-11-21T05:43:27;22.63;;;10.93;;
23506;SDS011;11930;53.076;18.250;2023-11-21T05:45:55;23.13;;;10.20;;
23506;SDS011;11930;53.076;18.250;2023-11-21T05:48:21;19.67;;;10.30;;
23506;SDS011;11930;53.076;18.250;2023-11-21T05:50:47;22.57;;;10.90;;
23506;SDS011;11930;53.076;18.250;2023-11-21T05:53:15;23.70;;;11.60;;
23506;SDS011;11930;53.076;18.250;2023-11-21T05:55:42;20.90;;;10.80;;
23506;SDS011;11930;53.076;18.250;2023-11-21T05:58:08;19.23;;;9.43;;
23506;SDS011;11930;53.076;18.250;2023-11-21T06:00:34;19.67;;;9.63;;
23506;SDS011;11930;53.076;18.250;2023-11-21T06:03:01;20.00;;;9.63;;
23506;SDS011;11930;53.076;18.250;2023-11-21T06:05:27;19.77;;;10.00;;
23506;SDS011;11930;53.076;18.250;2023-11-21T06:07:54;19.23;;;10.10;;
23506;SDS011;11930;53.076;18.250;2023-11-21T06:10:24;21.27;;;8.63;;
23506;SDS011;11930;53.076;18.250;2023-11-21T06:12:51;19.23;;;9.63;;
23506;SDS011;11930;53.076;18.250;2023-11-21T06:15:17;24.30;;;11.00;;
23506;SDS011;11930;53.076;18.250;2023-11-21T06:17:48;22.20;;;10.03;;
23506;SDS011;11930;53.076;18.250;2023-11-21T06:20:17;18.37;;;8.93;;
23506;SDS011;11930;53.076;18.250;2023-11-21T06:22:44;19.97;;;8.73;;
23506;SDS011;11930;53.076;18.250;2023-11-21T06:25:12;19.00;;;8.87;;
23506;SDS011;11930;53.076;18.250;2023-11-21T06:27:40;19.47;;;10.30;;
23506;SDS011;11930;53.076;18.250;2023-11-21T06:30:07;17.30;;;8.17;;
23506;SDS011;11930;53.076;18.250;2023-11-21T06:32:35;15.37;;;7.83;;
23506;SDS011;11930;53.076;18.250;2023-11-21T06:35:02;17.13;;;8.90;;
23506;SDS011;11930;53.076;18.250;2023-11-21T06:37:29;15.30;;;9.57;;
23506;SDS011;11930;53.076;18.250;2023-11-21T06:39:57;21.77;;;10.13;;
23506;SDS011;11930;53.076;18.250;2023-11-21T06:42:27;19.97;;;9.63;;
23506;SDS011;11930;53.076;18.250;2023-11-21T06:44:54;19.00;;;8.93;;
23506;SDS011;11930;53.076;18.250;2023-11-21T06:47:24;18.83;;;8.87;;
23506;SDS011;11930;53.076;18.250;2023-11-21T06:49:51;16.37;;;8.20;;
23506;SDS011;11930;53.076;18.250;2023-11-21T06:52:18;15.93;;;7.97;;
23506;SDS011;11930;53.076;18.250;2023-11-21T06:54:44;17.13;;;8.43;;
23506;SDS011;11930;53.076;18.250;2023-11-21T06:57:11;15.80;;;8.33;;
23506;SDS011;11930;53.076;18.250;2023-11-21T06:59:37;18.90;;;9.03;;
23506;SDS011;11930;53.076;18.250;2023-11-21T07:02:03;15.80;;;8.37;;
23506;SDS011;11930;53.076;18.250;2023-11-21T07:04:32;17.80;;;8.70;;
23506;SDS011;11930;53.076;18.250;2023-11-21T07:06:59;16.57;;;8.00;;
23506;SDS011;11930;53.076;18.250;2023-11-21T07:09:25;14.87;;;8.33;;
23506;SDS011;11930;53.076;18.250;2023-11-21T07:11:54;14.63;;;6.97;;
23506;SDS011;11930;53.076;18.250;2023-11-21T07:14:21;14.23;;;7.90;;
23506;SDS011;11930;53.076;18.250;2023-11-21T07:16:47;22.77;;;9.37;;
23506;SDS011;11930;53.076;18.250;2023-11-21T07:19:13;20.13;;;9.13;;
23506;SDS011;11930;53.076;18.250;2023-11-21T07:21:40;16.90;;;7.93;;
23506;SDS011;11930;53.076;18.250;2023-11-21T07:24:06;15.73;;;8.57;;
23506;SDS011;11930;53.076;18.250;2023-11-21T07:26:33;17.33;;;8.00;;
23506;SDS011;11930;53.076;18.250;2023-11-21T07:29:00;18.53;;;8.37;;
23506;SDS011;11930;53.076;18.250;2023-11-21T07:31:27;15.67;;;7.70;;
23506;SDS011;11930;53.076;18.250;2023-11-21T07:33:55;18.40;;;8.73;;
23506;SDS011;11930;53.076;18.250;2023-11-21T07:36:24;19.10;;;9.27;;
23506;SDS011;11930;53.076;18.250;2023-11-21T07:38:50;17.50;;;9.17;;
23506;SDS011;11930;53.076;18.250;2023-11-21T07:41:19;17.43;;;9.20;;
23506;SDS011;11930;53.076;18.250;2023-11-21T07:43:46;18.17;;;8.67;;
23506;SDS011;11930;53.076;18.250;2023-11-21T07:46:12;15.50;;;7.93;;
23506;SDS011;11930;53.076;18.250;2023-11-21T07:48:39;17.80;;;8.80;;
23506;SDS011;11930;53.076;18.250;2023-11-21T07:51:06;16.57;;;8.53;;
23506;SDS011;11930;53.076;18.250;2023-11-21T07:53:32;14.70;;;7.83;;
23506;SDS011;11930;53.076;18.250;2023-11-21T07:56:00;16.63;;;8.00;;
23506;SDS011;11930;53.076;18.250;2023-11-21T07:58:32;19.77;;;8.70;;
23506;SDS011;11930;53.076;18.250;2023-11-21T08:01:01;16.60;;;8.33;;
23506;SDS011;11930;53.076;18.250;2023-11-21T08:03:28;16.00;;;8.00;;
23506;SDS011;11930;53.076;18.250;2023-11-21T08:05:59;16.40;;;8.07;;
23506;SDS011;11930;53.076;18.250;2023-11-21T08:08:25;17.13;;;8.53;;
23506;SDS011;11930;53.076;18.250;2023-11-21T08:10:52;15.20;;;7.93;;
23506;SDS011;11930;53.076;18.250;2023-11-21T08:13:22;15.03;;;8.10;;
23506;SDS011;11930;53.076;18.250;2023-11-21T08:15:54;18.60;;;9.33;;
23506;SDS011;11930;53.076;18.250;2023-11-21T08:18:22;13.93;;;8.20;;
23506;SDS011;11930;53.076;18.250;2023-11-21T08:20:48;15.37;;;7.80;;
23506;SDS011;11930;53.076;18.250;2023-11-21T08:23:14;13.60;;;7.57;;
23506;SDS011;11930;53.076;18.250;2023-11-21T08:25:44;18.10;;;8.20;;
23506;SDS011;11930;53.076;18.250;2023-11-21T08:28:11;14.87;;;7.30;;
23506;SDS011;11930;53.076;18.250;2023-11-21T08:30:39;12.70;;;6.27;;
23506;SDS011;11930;53.076;18.250;2023-11-21T08:33:07;14.30;;;6.97;;
23506;SDS011;11930;53.076;18.250;2023-11-21T08:35:37;13.33;;;7.00;;
23506;SDS011;11930;53.076;18.250;2023-11-21T08:38:03;17.37;;;7.63;;
23506;SDS011;11930;53.076;18.250;2023-11-21T08:40:30;17.43;;;8.30;;
23506;SDS011;11930;53.076;18.250;2023-11-21T08:42:56;18.80;;;8.87;;
23506;SDS011;11930;53.076;18.250;2023-11-21T08:45:24;17.57;;;8.73;;
23506;SDS011;11930;53.076;18.250;2023-11-21T08:47:53;17.87;;;9.20;;
23506;SDS011;11930;53.076;18.250;2023-11-21T08:50:20;16.23;;;7.07;;
23506;SDS011;11930;53.076;18.250;2023-11-21T08:52:46;19.27;;;8.30;;
23506;SDS011;11930;53.076;18.250;2023-11-21T08:55:12;18.03;;;7.77;;
23506;SDS011;11930;53.076;18.250;2023-11-21T08:57:39;16.53;;;8.47;;
23506;SDS011;11930;53.076;18.250;2023-11-21T09:00:09;17.43;;;7.27;;
23506;SDS011;11930;53.076;18.250;2023-11-21T09:02:37;16.43;;;7.80;;
23506;SDS011;11930;53.076;18.250;2023-11-21T09:05:05;16.97;;;8.07;;
23506;SDS011;11930;53.076;18.250;2023-11-21T09:07:32;20.10;;;8.93;;
23506;SDS011;11930;53.076;18.250;2023-11-21T09:09:58;21.00;;;8.87;;
23506;SDS011;11930;53.076;18.250;2023-11-21T09:12:24;16.67;;;7.77;;
23506;SDS011;11930;53.076;18.250;2023-11-21T09:14:50;19.80;;;8.43;;
23506;SDS011;11930;53.076;18.250;2023-11-21T09:17:17;14.70;;;7.83;;
23506;SDS011;11930;53.076;18.250;2023-11-21T09:19:43;13.93;;;7.50;;
23506;SDS011;11930;53.076;18.250;2023-11-21T09:22:11;15.57;;;7.40;;
23506;SDS011;11930;53.076;18.250;2023-11-21T09:24:36;12.57;;;6.30;;
23506;SDS011;11930;53.076;18.250;2023-11-21T09:27:03;15.23;;;6.90;;
23506;SDS011;11930;53.076;18.250;2023-11-21T09:29:30;15.77;;;7.47;;
23506;SDS011;11930;53.076;18.250;2023-11-21T09:31:57;14.83;;;7.20;;
23506;SDS011;11930;53.076;18.250;2023-11-21T09:34:26;15.23;;;7.80;;
23506;SDS011;11930;53.076;18.250;2023-11-21T09:36:52;15.73;;;7.50;;
23506;SDS011;11930;53.076;18.250;2023-11-21T09:39:19;13.93;;;6.67;;
23506;SDS011;11930;53.076;18.250;2023-11-21T09:41:52;13.47;;;6.93;;
23506;SDS011;11930;53.076;18.250;2023-11-21T09:44:32;15.63;;;7.20;;
23506;SDS011;11930;53.076;18.250;2023-11-21T09:47:02;14.13;;;7.30;;
23506;SDS011;11930;53.076;18.250;2023-11-21T09:49:29;15.63;;;7.80;;
23506;SDS011;11930;53.076;18.250;2023-11-21T09:51:59;16.13;;;8.70;;
23506;SDS011;11930;53.076;18.250;2023-11-21T09:54:29;15.17;;;8.13;;
23506;SDS011;11930;53.076;18.250;2023-11-21T09:56:58;16.33;;;8.03;;
23506;SDS011;11930;53.076;18.250;2023-11-21T09:59:25;17.87;;;7.63;;
23506;SDS011;11930;53.076;18.250;2023-11-21T10:01:57;18.73;;;8.27;;
23506;SDS011;11930;53.076;18.250;2023-11-21T10:04:23;13.30;;;7.57;;
23506;SDS011;11930;53.076;18.250;2023-11-21T10:06:52;15.43;;;7.17;;
23506;SDS011;11930;53.076;18.250;2023-11-21T10:09:19;14.23;;;7.40;;
23506;SDS011;11930;53.076;18.250;2023-11-21T10:11:46;13.40;;;7.27;;
23506;SDS011;11930;53.076;18.250;2023-11-21T10:14:14;15.73;;;7.60;;
23506;SDS011;11930;53.076;18.250;2023-11-21T10:16:44;15.53;;;7.80;;
23506;SDS011;11930;53.076;18.250;2023-11-21T10:19:13;12.73;;;6.90;;
23506;SDS011;11930;53.076;18.250;2023-11-21T10:21:41;15.20;;;7.73;;
23506;SDS011;11930;53.076;18.250;2023-11-21T10:24:08;15.20;;;7.90;;
23506;SDS011;11930;53.076;18.250;2023-11-21T10:26:34;15.23;;;8.27;;
23506;SDS011;11930;53.076;18.250;2023-11-21T10:29:01;14.50;;;7.63;;
23506;SDS011;11930;53.076;18.250;2023-11-21T10:31:31;12.77;;;5.93;;
23506;SDS011;11930;53.076;18.250;2023-11-21T10:36:43;12.03;;;6.60;;
23506;SDS011;11930;53.076;18.250;2023-11-21T10:39:19;12.50;;;6.83;;
23506;SDS011;11930;53.076;18.250;2023-11-21T10:41:49;12.83;;;6.63;;
23506;SDS011;11930;53.076;18.250;2023-11-21T10:44:16;13.40;;;7.13;;
23506;SDS011;11930;53.076;18.250;2023-11-21T10:46:48;15.93;;;7.60;;
23506;SDS011;11930;53.076;18.250;2023-11-21T10:49:24;14.03;;;7.90;;
23506;SDS011;11930;53.076;18.250;2023-11-21T10:51:52;11.67;;;7.07;;
23506;SDS011;11930;53.076;18.250;2023-11-21T10:54:22;14.67;;;7.50;;
23506;SDS011;11930;53.076;18.250;2023-11-21T10:56:49;14.23;;;7.17;;
23506;SDS011;11930;53.076;18.250;2023-11-21T10:59:22;13.40;;;6.87;;
23506;SDS011;11930;53.076;18.250;2023-11-21T11:01:50;13.17;;;7.10;;
23506;SDS011;11930;53.076;18.250;2023-11-21T11:04:18;14.93;;;6.80;;
23506;SDS011;11930;53.076;18.250;2023-11-21T11:06:54;15.07;;;6.67;;
23506;SDS011;11930;53.076;18.250;2023-11-21T11:09:22;12.07;;;6.20;;
23506;SDS011;11930;53.076;18.250;2023-11-21T11:11:50;15.03;;;6.70;;
23506;SDS011;11930;53.076;18.250;2023-11-21T11:14:18;15.80;;;7.43;;
23506;SDS011;11930;53.076;18.250;2023-11-21T11:16:45;13.43;;;7.03;;
23506;SDS011;11930;53.076;18.250;2023-11-21T11:19:11;14.43;;;7.03;;
23506;SDS011;11930;53.076;18.250;2023-11-21T11:30:16;13.10;;;6.57;;
23506;SDS011;11930;53.076;18.250;2023-11-21T11:33:10;13.50;;;6.67;;
23506;SDS011;11930;53.076;18.250;2023-11-21T11:38:22;12.33;;;6.57;;
23506;SDS011;11930;53.076;18.250;2023-11-21T11:40:53;13.87;;;7.17;;
23506;SDS011;11930;53.076;18.250;2023-11-21T11:43:26;13.13;;;7.17;;
23506;SDS011;11930;53.076;18.250;2023-11-21T11:45:55;13.20;;;7.27;;
23506;SDS011;11930;53.076;18.250;2023-11-21T11:48:24;15.63;;;7.53;;
23506;SDS011;11930;53.076;18.250;2023-11-21T11:51:06;14.70;;;6.43;;
23506;SDS011;11930;53.076;18.250;2023-11-21T11:53:43;12.90;;;6.93;;
23506;SDS011;11930;53.076;18.250;2023-11-21T11:58:54;12.30;;;6.53;;
23506;SDS011;11930;53.076;18.250;2023-11-21T12:01:22;12.50;;;6.63;;
23506;SDS011;11930;53.076;18.250;2023-11-21T12:06:43;10.80;;;6.20;;
23506;SDS011;11930;53.076;18.250;2023-11-21T12:09:17;14.03;;;6.53;;
23506;SDS011;11930;53.076;18.250;2023-11-21T12:11:44;12.20;;;5.73;;
23506;SDS011;11930;53.076;18.250;2023-11-21T12:14:12;12.93;;;6.23;;
23506;SDS011;11930;53.076;18.250;2023-11-21T12:16:39;11.10;;;5.63;;
23506;SDS011;11930;53.076;18.250;2023-11-21T12:19:06;14.97;;;6.37;;
23506;SDS011;11930;53.076;18.250;2023-11-21T12:21:32;14.93;;;6.67;;
23506;SDS011;11930;53.076;18.250;2023-11-21T12:23:58;12.10;;;5.70;;
23506;SDS011;11930;53.076;18.250;2023-11-21T12:26:24;12.97;;;6.57;;
23506;SDS011;11930;53.076;18.250;2023-11-21T12:28:53;14.83;;;7.37;;
23506;SDS011;11930;53.076;18.250;2023-11-21T12:31:22;16.03;;;7.70;;
23506;SDS011;11930;53.076;18.250;2023-11-21T12:33:49;12.33;;;6.33;;
23506;SDS011;11930;53.076;18.250;2023-11-21T12:36:16;13.50;;;6.57;;
23506;SDS011;11930;53.076;18.250;2023-11-21T12:38:42;10.20;;;5.60;;
23506;SDS011;11930;53.076;18.250;2023-11-21T12:41:09;13.47;;;6.53;;
23506;SDS011;11930;53.076;18.250;2023-11-21T12:43:38;13.73;;;6.90;;
23506;SDS011;11930;53.076;18.250;2023-11-21T12:46:08;12.67;;;6.13;;
23506;SDS011;11930;53.076;18.250;2023-11-21T12:48:38;11.27;;;6.10;;
23506;SDS011;11930;53.076;18.250;2023-11-21T12:51:13;12.40;;;6.07;;
23506;SDS011;11930;53.076;18.250;2023-11-21T12:53:40;11.43;;;5.60;;
23506;SDS011;11930;53.076;18.250;2023-11-21T12:56:10;12.60;;;6.73;;
23506;SDS011;11930;53.076;18.250;2023-11-21T12:58:37;13.13;;;6.37;;
23506;SDS011;11930;53.076;18.250;2023-11-21T13:01:07;11.43;;;6.13;;
23506;SDS011;11930;53.076;18.250;2023-11-21T13:03:47;12.10;;;5.87;;
23506;SDS011;11930;53.076;18.250;2023-11-21T13:06:16;9.43;;;4.97;;
23506;SDS011;11930;53.076;18.250;2023-11-21T13:08:44;11.47;;;5.43;;
23506;SDS011;11930;53.076;18.250;2023-11-21T13:11:10;9.43;;;5.30;;
23506;SDS011;11930;53.076;18.250;2023-11-21T13:13:40;12.30;;;6.30;;
23506;SDS011;11930;53.076;18.250;2023-11-21T13:16:08;11.97;;;5.67;;
23506;SDS011;11930;53.076;18.250;2023-11-21T13:18:35;10.83;;;5.23;;
23506;SDS011;11930;53.076;18.250;2023-11-21T13:21:02;11.93;;;5.80;;
23506;SDS011;11930;53.076;18.250;2023-11-21T13:23:38;11.10;;;5.60;;
23506;SDS011;11930;53.076;18.250;2023-11-21T13:26:05;13.43;;;6.30;;
23506;SDS011;11930;53.076;18.250;2023-11-21T13:28:32;12.07;;;5.40;;
23506;SDS011;11930;53.076;18.250;2023-11-21T13:30:59;11.07;;;5.33;;
23506;SDS011;11930;53.076;18.250;2023-11-21T13:33:35;14.83;;;6.20;;
23506;SDS011;11930;53.076;18.250;2023-11-21T13:36:06;14.93;;;6.20;;
23506;SDS011;11930;53.076;18.250;2023-11-21T13:38:35;17.20;;;6.60;;
23506;SDS011;11930;53.076;18.250;2023-11-21T13:41:02;12.20;;;5.30;;
23506;SDS011;11930;53.076;18.250;2023-11-21T13:43:32;12.57;;;5.47;;
23506;SDS011;11930;53.076;18.250;2023-11-21T13:45:59;17.40;;;6.73;;
23506;SDS011;11930;53.076;18.250;2023-11-21T13:48:40;17.03;;;6.27;;
23506;SDS011;11930;53.076;18.250;2023-11-21T13:51:11;13.97;;;5.50;;
23506;SDS011;11930;53.076;18.250;2023-11-21T13:53:46;11.63;;;5.43;;
23506;SDS011;11930;53.076;18.250;2023-11-21T13:56:15;10.33;;;4.80;;
23506;SDS011;11930;53.076;18.250;2023-11-21T13:58:45;8.63;;;4.83;;
23506;SDS011;11930;53.076;18.250;2023-11-21T14:01:17;8.23;;;4.23;;
23506;SDS011;11930;53.076;18.250;2023-11-21T14:04:00;10.90;;;4.53;;
23506;SDS011;11930;53.076;18.250;2023-11-21T14:06:34;11.60;;;5.00;;
23506;SDS011;11930;53.076;18.250;2023-11-21T14:09:11;14.67;;;5.93;;
23506;SDS011;11930;53.076;18.250;2023-11-21T14:11:39;12.43;;;5.47;;
23506;SDS011;11930;53.076;18.250;2023-11-21T14:14:05;10.40;;;4.90;;
23506;SDS011;11930;53.076;18.250;2023-11-21T14:16:31;15.10;;;7.47;;
23506;SDS011;11930;53.076;18.250;2023-11-21T14:18:57;14.37;;;7.20;;
23506;SDS011;11930;53.076;18.250;2023-11-21T14:21:34;20.20;;;8.63;;
23506;SDS011;11930;53.076;18.250;2023-11-21T14:24:01;32.27;;;12.77;;
23506;SDS011;11930;53.076;18.250;2023-11-21T14:26:28;18.17;;;8.00;;
23506;SDS011;11930;53.076;18.250;2023-11-21T14:28:55;27.40;;;9.43;;
23506;SDS011;11930;53.076;18.250;2023-11-21T14:31:22;40.80;;;12.10;;
23506;SDS011;11930;53.076;18.250;2023-11-21T14:33:49;47.03;;;12.83;;
23506;SDS011;11930;53.076;18.250;2023-11-21T14:36:15;36.07;;;10.77;;
23506;SDS011;11930;53.076;18.250;2023-11-21T14:38:42;64.77;;;16.60;;
23506;SDS011;11930;53.076;18.250;2023-11-21T14:41:09;15.50;;;8.60;;